createdAt,value
2017-06-05T00:02:18.825Z,51.20
2017-06-05T00:04:46.366Z,51.10
2017-06-05T00:07:14.044Z,51.10
2017-06-05T00:09:41.575Z,51.00
2017-06-05T00:12:09.163Z,51.00
2017-06-05T00:14:36.692Z,51.00
2017-06-05T00:17:04.223Z,51.00
2017-06-05T00:19:32.656Z,50.90
2017-06-05T00:22:00.236Z,50.90
2017-06-05T00:24:27.880Z,50.80
2017-06-05T00:26:55.413Z,50.70
2017-06-05T00:29:22.943Z,50.60
2017-06-05T00:31:51.285Z,50.70
2017-06-05T00:34:18.838Z,50.70
2017-06-05T00:36:46.409Z,50.60
2017-06-05T00:39:14.024Z,50.70
2017-06-05T00:41:41.608Z,50.70
2017-06-05T00:44:09.276Z,50.70
2017-06-05T00:46:36.811Z,50.60
2017-06-05T00:49:04.495Z,50.50
2017-06-05T00:51:32.027Z,50.50
2017-06-05T00:53:59.563Z,50.50
2017-06-05T00:56:27.924Z,50.60
2017-06-05T00:58:55.455Z,50.40
2017-06-05T01:01:22.984Z,50.40
2017-06-05T01:03:50.562Z,50.40
2017-06-05T01:06:18.135Z,50.40
2017-06-05T01:08:45.669Z,50.30
2017-06-05T01:11:13.250Z,50.40
2017-06-05T01:13:40.831Z,50.50
2017-06-05T01:16:08.383Z,50.50
2017-06-05T01:18:35.929Z,50.60
2017-06-05T01:21:03.500Z,50.50
2017-06-05T01:23:31.035Z,50.60
2017-06-05T01:25:58.611Z,50.50
2017-06-05T01:28:26.143Z,50.40
2017-06-05T01:30:53.677Z,50.40
2017-06-05T01:33:21.279Z,50.40
2017-06-05T01:35:48.819Z,50.40
2017-06-05T01:38:16.359Z,50.30
2017-06-05T01:40:43.931Z,50.30
2017-06-05T01:43:11.521Z,50.40
2017-06-05T01:45:39.184Z,50.30
2017-06-05T01:48:06.911Z,50.30
2017-06-05T01:50:34.509Z,50.20
2017-06-05T01:53:02.088Z,50.20
2017-06-05T01:55:29.620Z,50.20
2017-06-05T01:57:57.152Z,50.10
2017-06-05T02:00:24.745Z,50.00
2017-06-05T02:02:52.306Z,50.00
2017-06-05T02:05:19.844Z,49.80
2017-06-05T02:07:47.428Z,49.80
2017-06-05T02:10:14.965Z,49.90
2017-06-05T02:12:42.499Z,49.90
2017-06-05T02:15:10.068Z,49.90
2017-06-05T02:17:37.599Z,49.80
2017-06-05T02:20:05.939Z,49.80
2017-06-05T02:22:33.475Z,49.80
2017-06-05T02:25:01.011Z,49.80
2017-06-05T02:27:28.580Z,49.80
2017-06-05T02:29:56.178Z,49.80
2017-06-05T02:32:23.716Z,49.70
2017-06-05T02:34:51.303Z,49.80
2017-06-05T02:37:18.836Z,49.90
2017-06-05T02:39:46.413Z,49.80
2017-06-05T02:42:13.987Z,49.90
2017-06-05T02:44:41.519Z,49.80
2017-06-05T02:47:09.101Z,49.80
2017-06-05T02:49:36.633Z,49.80
2017-06-05T02:52:04.167Z,49.90
2017-06-05T02:54:31.744Z,49.90
2017-06-05T02:56:59.275Z,49.80
2017-06-05T02:59:27.576Z,50.00
2017-06-05T03:01:55.148Z,50.00
2017-06-05T03:04:22.732Z,50.00
2017-06-05T03:06:50.264Z,50.00
2017-06-05T03:09:17.797Z,49.90
2017-06-05T03:11:45.405Z,49.90
2017-06-05T03:14:12.941Z,49.90
2017-06-05T03:16:40.475Z,50.00
2017-06-05T03:19:08.901Z,50.10
2017-06-05T03:21:36.431Z,50.00
2017-06-05T03:24:04.020Z,50.10
2017-06-05T03:26:31.615Z,50.30
2017-06-05T03:28:59.958Z,50.90
2017-06-05T03:31:27.515Z,50.20
2017-06-05T03:33:55.177Z,50.30
2017-06-05T03:36:22.739Z,50.30
2017-06-05T03:38:50.272Z,50.30
2017-06-05T03:41:17.856Z,50.30
2017-06-05T03:43:45.417Z,50.20
2017-06-05T03:46:12.948Z,50.30
2017-06-05T03:48:40.520Z,50.40
2017-06-05T03:51:08.159Z,50.30
2017-06-05T03:53:35.856Z,50.40
2017-06-05T03:56:03.419Z,50.50
2017-06-05T03:58:30.951Z,50.40
2017-06-05T04:00:58.536Z,50.40
2017-06-05T04:03:26.205Z,50.50
2017-06-05T04:05:53.775Z,50.40
2017-06-05T04:08:21.369Z,50.40
2017-06-05T04:10:48.975Z,50.40
2017-06-05T04:13:16.508Z,50.50
2017-06-05T04:15:44.090Z,50.50
2017-06-05T04:18:11.637Z,50.60
2017-06-05T04:20:39.215Z,50.60
2017-06-05T04:23:06.758Z,50.60
2017-06-05T04:25:34.296Z,50.50
2017-06-05T04:28:01.871Z,50.70
2017-06-05T04:30:29.451Z,50.60
2017-06-05T04:32:56.989Z,50.60
2017-06-05T04:35:24.577Z,50.60
2017-06-05T04:37:52.131Z,50.70
2017-06-05T04:40:19.780Z,50.80
2017-06-05T04:42:47.363Z,50.70
2017-06-05T04:45:14.954Z,50.70
2017-06-05T04:47:42.483Z,50.90
2017-06-05T04:50:10.076Z,51.00
2017-06-05T04:52:37.607Z,51.10
2017-06-05T04:55:05.140Z,51.10
2017-06-05T04:57:33.571Z,51.00
2017-06-05T05:00:01.131Z,51.00
2017-06-05T05:02:28.699Z,51.00
2017-06-05T05:04:56.236Z,51.00
2017-06-05T05:07:23.819Z,51.00
2017-06-05T05:09:51.348Z,51.00
2017-06-05T05:12:18.926Z,50.90
2017-06-05T05:14:46.495Z,50.90
2017-06-05T05:17:14.080Z,50.90
2017-06-05T05:19:41.622Z,50.90
2017-06-05T05:22:09.160Z,50.80
2017-06-05T05:24:36.835Z,51.50
2017-06-05T05:27:04.391Z,51.00
2017-06-05T05:29:31.947Z,51.10
2017-06-05T05:31:59.607Z,51.30
2017-06-05T05:34:27.268Z,51.10
2017-06-05T05:36:54.804Z,50.70
2017-06-05T05:39:22.409Z,50.70
2017-06-05T05:41:49.995Z,50.50
2017-06-05T05:44:17.585Z,50.60
2017-06-05T05:46:45.923Z,50.30
2017-06-05T05:49:13.573Z,50.30
2017-06-05T05:51:41.151Z,50.20
2017-06-05T05:54:08.692Z,50.70
2017-06-05T05:56:36.282Z,50.00
2017-06-05T05:59:03.819Z,50.00
2017-06-05T06:01:31.357Z,50.00
2017-06-05T06:03:59.093Z,50.00
2017-06-05T06:06:27.427Z,50.10
2017-06-05T06:08:54.990Z,50.00
2017-06-05T06:11:22.559Z,50.10
2017-06-05T06:13:50.203Z,50.00
2017-06-05T06:16:17.783Z,50.00
2017-06-05T06:18:45.315Z,50.00
2017-06-05T06:21:12.848Z,49.80
2017-06-05T06:23:40.449Z,49.70
2017-06-05T06:26:07.979Z,49.70
2017-06-05T06:28:35.559Z,49.50
2017-06-05T06:31:03.224Z,50.70
2017-06-05T06:33:30.755Z,48.10
2017-06-05T06:35:58.430Z,50.80
2017-06-05T06:38:26.016Z,50.40
2017-06-05T06:40:53.552Z,49.90
2017-06-05T06:43:21.119Z,49.60
2017-06-05T06:45:48.696Z,49.20
2017-06-05T06:48:16.234Z,49.00
2017-06-05T06:50:43.800Z,49.50
2017-06-05T06:53:11.460Z,49.80
2017-06-05T06:55:39.788Z,49.40
2017-06-05T06:58:07.334Z,49.40
2017-06-05T07:00:34.920Z,49.30
2017-06-05T07:03:02.579Z,49.10
2017-06-05T07:05:30.149Z,48.80
2017-06-05T07:07:57.723Z,48.80
2017-06-05T07:10:25.363Z,48.80
2017-06-05T07:12:52.931Z,48.70
2017-06-05T07:15:20.464Z,48.80
2017-06-05T07:17:48.056Z,48.80
2017-06-05T07:20:15.623Z,48.80
2017-06-05T07:22:43.155Z,48.80
2017-06-05T07:25:10.824Z,48.60
2017-06-05T07:27:38.356Z,48.30
2017-06-05T07:30:05.948Z,48.10
2017-06-05T07:32:33.536Z,43.90
2017-06-05T07:35:01.173Z,48.40
2017-06-05T07:37:28.715Z,48.10
2017-06-05T07:39:56.301Z,46.20
2017-06-05T07:42:23.832Z,48.30
2017-06-05T07:44:51.363Z,48.50
2017-06-05T07:47:19.699Z,48.60
2017-06-05T07:49:47.265Z,48.60
2017-06-05T07:52:15.564Z,48.10
2017-06-05T07:54:43.136Z,47.30
2017-06-05T07:57:10.671Z,48.50
2017-06-05T07:59:38.252Z,51.50
2017-06-05T08:02:06.556Z,54.30
2017-06-05T08:04:34.141Z,53.50
2017-06-05T08:07:01.675Z,52.40
2017-06-05T08:09:29.200Z,51.40
2017-06-05T08:11:56.779Z,49.50
2017-06-05T08:14:24.363Z,51.30
2017-06-05T08:16:51.892Z,51.30
2017-06-05T08:19:19.428Z,52.00
2017-06-05T08:21:47.765Z,50.30
2017-06-05T08:24:15.292Z,50.30
2017-06-05T08:26:42.864Z,53.00
2017-06-05T08:29:10.447Z,49.40
2017-06-05T08:31:37.977Z,54.10
2017-06-05T08:34:06.272Z,50.80
2017-06-05T08:36:33.834Z,50.70
2017-06-05T08:39:01.364Z,52.20
2017-06-05T08:41:28.947Z,51.30
2017-06-05T08:43:57.248Z,56.60
2017-06-05T08:46:24.792Z,56.60
2017-06-05T08:48:52.377Z,56.00
2017-06-05T08:51:19.907Z,53.90
2017-06-05T08:53:48.244Z,52.80
2017-06-05T08:56:15.780Z,52.70
2017-06-05T08:58:43.348Z,49.70
2017-06-05T09:01:10.886Z,48.60
2017-06-05T09:03:38.455Z,50.00
2017-06-05T09:06:05.987Z,50.20
2017-06-05T09:08:33.561Z,51.10
2017-06-05T09:11:01.132Z,51.00
2017-06-05T09:13:28.731Z,47.70
2017-06-05T09:15:56.311Z,46.30
2017-06-05T09:18:23.847Z,51.80
2017-06-05T09:20:51.455Z,52.30
2017-06-05T09:23:18.988Z,50.80
2017-06-05T09:25:46.520Z,51.10
2017-06-05T09:28:14.099Z,49.40
2017-06-05T09:30:41.631Z,47.60
2017-06-05T09:33:09.937Z,49.80
2017-06-05T09:35:37.656Z,49.70
2017-06-05T09:38:06.084Z,48.30
2017-06-05T09:40:33.655Z,48.30
2017-06-05T09:43:01.235Z,49.20
2017-06-05T09:45:28.764Z,48.00
2017-06-05T09:47:56.321Z,47.50
2017-06-05T09:50:23.973Z,48.50
2017-06-05T09:52:51.551Z,47.80
2017-06-05T09:55:19.093Z,48.10
2017-06-05T09:57:46.772Z,48.40
2017-06-05T10:00:14.309Z,46.60
2017-06-05T10:02:41.888Z,45.30
2017-06-05T10:05:09.443Z,46.80
2017-06-05T10:07:36.976Z,47.10
2017-06-05T10:10:04.553Z,47.80
2017-06-05T10:12:32.153Z,46.40
2017-06-05T10:14:59.688Z,46.10
2017-06-05T10:17:27.301Z,43.90
2017-06-05T10:19:55.645Z,48.70
2017-06-05T10:22:23.201Z,48.70
2017-06-05T10:24:50.855Z,48.80
2017-06-05T10:27:18.419Z,49.10
2017-06-05T10:29:45.996Z,48.60
2017-06-05T10:32:13.640Z,47.00
2017-06-05T10:34:41.202Z,47.20
2017-06-05T10:37:08.742Z,48.50
2017-06-05T10:39:36.353Z,50.10
2017-06-05T10:42:04.651Z,48.80
2017-06-05T10:44:32.197Z,49.30
2017-06-05T10:47:00.544Z,48.00
2017-06-05T10:49:28.084Z,48.10
2017-06-05T10:51:55.620Z,49.30
2017-06-05T10:54:23.195Z,49.20
2017-06-05T10:56:50.789Z,49.90
2017-06-05T10:59:18.332Z,51.80
2017-06-05T11:01:45.869Z,50.30
2017-06-05T11:04:13.655Z,50.20
2017-06-05T11:06:41.192Z,49.80
2017-06-05T11:09:08.768Z,49.90
2017-06-05T11:11:37.271Z,48.30
2017-06-05T11:14:04.804Z,49.10
2017-06-05T11:16:32.331Z,50.10
2017-06-05T11:18:59.912Z,50.30
2017-06-05T11:21:27.560Z,49.00
2017-06-05T11:23:55.088Z,49.60
2017-06-05T11:26:22.691Z,51.00
2017-06-05T11:28:50.327Z,49.50
2017-06-05T11:31:17.892Z,48.30
2017-06-05T11:33:45.488Z,46.00
2017-06-05T11:36:13.040Z,45.90
2017-06-05T11:38:40.571Z,48.20
2017-06-05T11:41:09.179Z,47.30
2017-06-05T11:43:36.739Z,47.60
2017-06-05T11:46:04.284Z,49.50
2017-06-05T11:48:31.863Z,48.20
2017-06-05T11:51:00.205Z,49.30
2017-06-05T11:53:27.773Z,49.30
2017-06-05T11:56:01.926Z,48.20
2017-06-05T11:58:29.617Z,49.00
2017-06-05T12:00:57.190Z,50.40
2017-06-05T12:03:24.773Z,47.90
2017-06-05T12:05:52.324Z,49.70
2017-06-05T12:08:19.912Z,49.10
2017-06-05T12:10:48.329Z,50.10
2017-06-05T12:13:15.864Z,50.10
2017-06-05T12:15:43.468Z,48.10
2017-06-05T12:20:46.511Z,48.60
2017-06-05T12:23:14.059Z,45.70
2017-06-05T12:25:42.534Z,47.60
2017-06-05T12:28:10.980Z,43.80
2017-06-05T12:30:38.627Z,43.70
2017-06-05T12:33:06.287Z,45.40
2017-06-05T12:35:33.860Z,43.90
2017-06-05T12:38:01.455Z,45.30
2017-06-05T12:40:28.996Z,43.50
2017-06-05T12:42:57.304Z,44.90
2017-06-05T12:45:24.879Z,44.90
2017-06-05T12:47:52.443Z,45.20
2017-06-05T12:50:20.035Z,43.90
2017-06-05T12:52:47.631Z,45.80
2017-06-05T12:55:15.190Z,43.60
2017-06-05T12:57:42.769Z,42.40
2017-06-05T13:00:11.675Z,43.30
2017-06-05T13:02:40.011Z,44.50
2017-06-05T13:05:07.559Z,44.50
2017-06-05T13:07:35.928Z,39.70
2017-06-05T13:10:03.459Z,41.30
2017-06-05T13:12:31.032Z,42.40
2017-06-05T13:14:58.563Z,43.10
2017-06-05T13:17:26.916Z,44.20
2017-06-05T13:19:54.452Z,44.20
2017-06-05T13:22:22.048Z,45.60
2017-06-05T13:24:50.504Z,47.20
2017-06-05T13:27:18.081Z,47.20
2017-06-05T13:29:45.661Z,46.60
2017-06-05T13:32:13.975Z,48.70
2017-06-05T13:34:41.576Z,48.60
2017-06-05T13:37:09.180Z,47.90
2017-06-05T13:39:36.721Z,49.20
2017-06-05T13:42:04.502Z,45.90
2017-06-05T13:44:32.049Z,46.80
2017-06-05T13:46:59.636Z,49.00
2017-06-05T13:49:27.179Z,47.60
2017-06-05T13:51:54.739Z,47.50
2017-06-05T13:54:22.308Z,47.30
2017-06-05T13:56:49.904Z,48.40
2017-06-05T13:59:18.207Z,48.10
2017-06-05T14:01:45.805Z,48.10
2017-06-05T14:04:13.392Z,46.80
2017-06-05T14:06:41.708Z,48.40
2017-06-05T14:09:09.395Z,48.40
2017-06-05T14:11:37.055Z,48.60
2017-06-05T14:14:04.625Z,48.10
2017-06-05T14:16:32.676Z,45.60
2017-06-05T14:19:00.454Z,46.80
2017-06-05T14:21:28.011Z,47.80
2017-06-05T14:23:55.552Z,46.20
2017-06-05T14:26:23.307Z,46.00
2017-06-05T14:28:50.843Z,46.30
2017-06-05T14:31:18.500Z,48.50
2017-06-05T14:33:46.037Z,47.30
2017-06-05T14:36:14.662Z,48.50
2017-06-05T14:38:42.219Z,48.40
2017-06-05T14:41:09.757Z,46.80
2017-06-05T14:43:37.445Z,45.20
2017-06-05T14:46:05.203Z,45.20
2017-06-05T14:48:32.736Z,45.90
2017-06-05T14:51:00.271Z,46.20
2017-06-05T14:53:28.635Z,44.30
2017-06-05T14:55:56.935Z,40.40
2017-06-05T14:58:24.523Z,40.30
2017-06-05T15:00:52.236Z,38.00
2017-06-05T15:03:19.792Z,39.70
2017-06-05T15:05:47.368Z,42.20
2017-06-05T15:08:14.939Z,42.50
2017-06-05T15:10:42.508Z,42.20
2017-06-05T15:13:10.948Z,42.10
2017-06-05T15:15:38.523Z,42.10
2017-06-05T15:18:06.056Z,41.80
2017-06-05T15:20:33.723Z,41.60
2017-06-05T15:23:01.283Z,42.50
2017-06-05T15:25:29.035Z,46.20
2017-06-05T15:27:56.629Z,44.50
2017-06-05T15:30:24.259Z,43.60
2017-06-05T15:32:51.859Z,44.00
2017-06-05T15:35:19.453Z,46.30
2017-06-05T15:37:47.758Z,43.30
2017-06-05T15:40:15.291Z,42.50
2017-06-05T15:42:43.737Z,36.60
2017-06-05T15:45:11.295Z,36.50
2017-06-05T15:47:39.227Z,37.10
2017-06-05T15:50:06.824Z,38.00
2017-06-05T15:52:34.372Z,37.10
2017-06-05T15:55:01.952Z,36.70
2017-06-05T15:57:29.603Z,39.40
2017-06-05T15:59:57.165Z,42.40
2017-06-05T16:02:24.722Z,43.00
2017-06-05T16:04:52.297Z,44.20
2017-06-05T16:07:19.883Z,45.20
2017-06-05T16:09:48.228Z,47.70
2017-06-05T16:12:15.760Z,47.70
2017-06-05T16:14:43.335Z,48.20
2017-06-05T16:17:10.996Z,48.00
2017-06-05T16:19:38.544Z,49.10
2017-06-05T16:22:06.112Z,50.40
2017-06-05T16:24:33.696Z,50.90
2017-06-05T16:27:01.992Z,52.20
2017-06-05T16:29:29.583Z,52.10
2017-06-05T16:31:57.245Z,52.20
2017-06-05T16:34:24.807Z,51.70
2017-06-05T16:36:52.360Z,51.90
2017-06-05T16:39:19.941Z,53.10
2017-06-05T16:41:47.496Z,52.90
2017-06-05T16:44:15.053Z,53.70
2017-06-05T16:46:42.636Z,54.40
2017-06-05T16:49:10.935Z,54.00
2017-06-05T16:51:38.537Z,53.90
2017-06-05T16:54:06.132Z,54.90
2017-06-05T16:56:34.472Z,54.60
2017-06-05T16:59:02.003Z,54.50
2017-06-05T17:01:29.578Z,55.10
2017-06-05T17:03:57.244Z,55.60
2017-06-05T17:06:24.908Z,55.40
2017-06-05T17:08:52.444Z,55.10
2017-06-05T17:11:20.019Z,56.60
2017-06-05T17:13:47.587Z,56.60
2017-06-05T17:16:15.160Z,56.50
2017-06-05T17:18:42.691Z,56.70
2017-06-05T17:21:10.279Z,56.50
2017-06-05T17:23:37.895Z,57.10
2017-06-05T17:26:05.431Z,57.20
2017-06-05T17:28:33.019Z,57.10
2017-06-05T17:31:00.627Z,57.30
2017-06-05T17:33:28.223Z,57.70
2017-06-05T17:35:56.527Z,58.60
2017-06-05T17:38:24.060Z,58.60
2017-06-05T17:40:52.400Z,59.10
2017-06-05T17:43:19.940Z,59.10
2017-06-05T17:45:47.528Z,59.00
2017-06-05T17:48:15.060Z,58.60
2017-06-05T17:50:42.595Z,58.50
2017-06-05T17:53:10.247Z,58.70
2017-06-05T17:55:37.799Z,58.70
2017-06-05T17:58:05.332Z,59.60
2017-06-05T18:00:32.919Z,58.60
2017-06-05T18:03:00.448Z,58.90
2017-06-05T18:05:28.060Z,58.70
2017-06-05T18:07:55.611Z,59.00
2017-06-05T18:10:23.140Z,59.00
2017-06-05T18:12:50.728Z,59.30
2017-06-05T18:15:18.283Z,59.60
2017-06-05T18:17:45.853Z,58.80
2017-06-05T18:20:13.448Z,58.80
2017-06-05T18:22:41.789Z,61.80
2017-06-05T18:25:09.443Z,61.80
2017-06-05T18:27:37.211Z,63.60
2017-06-05T18:30:04.836Z,64.50
2017-06-05T18:32:32.367Z,64.90
2017-06-05T18:35:00.711Z,66.20
2017-06-05T18:37:28.303Z,66.10
2017-06-05T18:39:56.603Z,70.50
2017-06-05T18:42:24.208Z,70.50
2017-06-05T18:44:51.899Z,72.30
2017-06-05T18:47:19.431Z,74.70
2017-06-05T18:49:46.985Z,77.00
2017-06-05T18:52:20.471Z,78.40
2017-06-05T18:54:48.845Z,80.50
2017-06-05T18:57:16.420Z,80.50
2017-06-05T18:59:43.960Z,81.50
2017-06-05T19:02:11.543Z,82.20
2017-06-05T19:04:39.079Z,82.10
2017-06-05T19:07:06.640Z,83.20
2017-06-05T19:09:34.229Z,83.80
2017-06-05T19:32:58.215Z,83.00
2017-06-05T19:35:25.743Z,83.00
2017-06-05T19:37:53.331Z,82.60
2017-06-05T19:40:20.891Z,83.10
2017-06-05T19:42:48.419Z,84.00
2017-06-05T19:45:15.988Z,84.10
2017-06-05T19:47:43.571Z,85.30
2017-06-05T19:50:11.180Z,85.30
2017-06-05T19:52:39.510Z,86.40
2017-06-05T19:55:07.068Z,86.30
2017-06-05T19:57:34.736Z,86.20
2017-06-05T20:00:02.270Z,86.30
2017-06-05T20:02:29.864Z,86.30
2017-06-05T20:04:57.443Z,85.80
2017-06-05T20:07:24.978Z,85.60
2017-06-05T20:09:52.515Z,86.30
2017-06-05T20:12:20.095Z,87.20
2017-06-05T20:14:47.628Z,87.40
2017-06-05T20:17:15.212Z,87.20
2017-06-05T20:19:42.875Z,86.90
2017-06-05T20:22:11.377Z,86.30
2017-06-05T20:24:38.908Z,86.70
2017-06-05T20:27:06.567Z,87.40
2017-06-05T20:29:34.131Z,88.10
2017-06-05T20:32:01.687Z,88.20
2017-06-05T20:34:29.260Z,88.00
2017-06-05T20:36:56.811Z,87.90
2017-06-05T20:39:24.639Z,87.30
2017-06-05T20:41:52.214Z,87.10
2017-06-05T20:44:19.803Z,87.00
2017-06-05T20:46:47.403Z,86.40
2017-06-05T20:49:15.011Z,86.10
2017-06-05T20:51:42.543Z,86.60
2017-06-05T20:54:10.126Z,86.90
2017-06-05T20:56:37.668Z,87.60
2017-06-05T20:59:05.239Z,88.30
2017-06-05T21:01:32.811Z,88.50
2017-06-05T21:04:00.470Z,88.70
2017-06-05T21:06:28.043Z,88.20
2017-06-05T21:08:55.571Z,88.10
2017-06-05T21:11:23.148Z,87.90
2017-06-05T21:13:50.715Z,88.20
2017-06-05T21:16:18.292Z,87.80
2017-06-05T21:18:45.931Z,87.80
2017-06-05T21:21:13.463Z,88.40
2017-06-05T21:23:41.052Z,88.60
2017-06-05T21:26:08.711Z,88.40
2017-06-05T21:28:36.381Z,88.30
2017-06-05T21:31:03.935Z,88.10
2017-06-05T21:33:31.471Z,87.70
2017-06-05T21:35:59.064Z,87.40
2017-06-05T21:38:26.615Z,87.00
2017-06-05T21:40:54.175Z,87.30
2017-06-05T21:43:21.865Z,87.60
2017-06-05T21:45:49.495Z,87.70
2017-06-05T21:48:17.055Z,87.70
2017-06-05T21:50:44.591Z,87.80
2017-06-05T21:53:12.171Z,88.80
2017-06-05T21:55:39.703Z,88.20
2017-06-05T21:58:07.404Z,89.20
2017-06-05T22:00:34.957Z,88.10
2017-06-05T22:03:02.491Z,87.80
2017-06-05T22:05:30.079Z,87.50
2017-06-05T22:07:57.611Z,87.40
2017-06-05T22:10:25.156Z,87.90
2017-06-05T22:12:52.755Z,88.20
2017-06-05T22:15:20.332Z,88.10
2017-06-05T22:17:47.903Z,87.80
2017-06-05T22:20:15.536Z,88.10
2017-06-05T22:22:43.071Z,88.10
2017-06-05T22:25:10.660Z,88.20
2017-06-05T22:27:38.201Z,87.90
2017-06-05T22:30:05.787Z,87.40
2017-06-05T22:32:33.435Z,87.40
2017-06-05T22:35:00.991Z,87.80
2017-06-05T22:37:28.551Z,87.70
2017-06-05T22:39:56.207Z,87.90
2017-06-05T22:42:23.792Z,88.10
2017-06-05T22:44:51.332Z,87.80
2017-06-05T22:47:18.863Z,88.30
2017-06-05T22:49:46.456Z,88.60
2017-06-05T22:52:14.016Z,89.00
2017-06-05T22:54:41.598Z,89.20
2017-06-05T22:57:09.170Z,88.90
2017-06-05T22:59:37.606Z,89.20
2017-06-05T23:02:05.687Z,89.00
2017-06-05T23:04:33.285Z,88.80
2017-06-05T23:07:01.625Z,88.20
2017-06-05T23:09:29.209Z,88.20
2017-06-05T23:11:56.839Z,88.10
2017-06-05T23:14:24.445Z,88.40
2017-06-05T23:16:52.779Z,88.20
2017-06-05T23:19:20.335Z,88.20
2017-06-05T23:21:47.959Z,88.40
2017-06-05T23:24:15.555Z,88.10
2017-06-05T23:26:43.115Z,88.30
2017-06-05T23:29:10.779Z,87.80
2017-06-05T23:31:38.311Z,87.70
2017-06-05T23:34:05.904Z,87.30
2017-06-05T23:36:33.559Z,87.30
2017-06-05T23:39:01.123Z,87.30
2017-06-05T23:41:28.707Z,87.90
2017-06-05T23:43:56.248Z,88.30
2017-06-05T23:46:23.783Z,88.30
2017-06-05T23:48:51.363Z,87.90
2017-06-05T23:51:18.895Z,88.60
2017-06-05T23:53:46.575Z,88.60
2017-06-05T23:56:14.136Z,88.40
2017-06-05T23:58:41.699Z,88.80
